Time;durP1;ratioP1;P1;durP2;ratioP2;P2;SDS_P1;SDS_P2;PMS_P1;PMS_P2;Temp;Humidity;BMP_temperature;BMP_pressure;BME280_temperature;BME280_humidity;BME280_pressure;Samples;Min_cycle;Max_cycle;Signal;HPM_P1;HPM_P2
2023/10/06 00:01:40;;;;;;;0.00;0.00;;;10.30;99.90;;;;;;4963704;28;20569;-81
2023/10/06 00:04:07;;;;;;;0.07;0.07;;;10.10;99.90;;;;;;4960818;28;20224;-81
2023/10/06 00:06:37;;;;;;;0.10;0.10;;;10.20;99.90;;;;;;4962045;28;20221;-81
2023/10/06 00:09:06;;;;;;;0.03;0.03;;;10.30;99.90;;;;;;4962461;28;20185;-81
2023/10/06 00:11:32;;;;;;;0.10;0.10;;;10.30;99.90;;;;;;4963498;28;20667;-81
2023/10/06 00:14:00;;;;;;;0.10;0.10;;;10.40;99.90;;;;;;4963945;28;20271;-81
2023/10/06 00:16:34;;;;;;;0.10;0.10;;;10.50;99.90;;;;;;4978996;28;20198;-81
2023/10/06 00:19:12;;;;;;;0.10;0.10;;;10.50;99.90;;;;;;4963183;28;20719;-81
2023/10/06 00:21:43;;;;;;;0.00;0.00;;;10.50;99.90;;;;;;4960625;28;20201;-81
2023/10/06 00:24:10;;;;;;;0.10;0.10;;;10.60;99.90;;;;;;4961267;28;20735;-80
2023/10/06 00:26:37;;;;;;;0.03;0.03;;;10.60;99.90;;;;;;4962093;28;20302;-80
2023/10/06 00:29:04;;;;;;;0.00;0.00;;;10.60;99.90;;;;;;4963367;28;20188;-81
2023/10/06 00:31:31;;;;;;;0.00;0.00;;;10.40;99.90;;;;;;4962649;28;20181;-81
2023/10/06 00:34:00;;;;;;;0.10;0.10;;;10.40;99.90;;;;;;4960884;28;20203;-80
2023/10/06 00:36:29;;;;;;;0.10;0.10;;;10.30;99.90;;;;;;4961905;28;20251;-81
2023/10/06 00:38:55;;;;;;;0.10;0.10;;;10.30;99.90;;;;;;4962683;28;20185;-81
2023/10/06 00:41:21;;;;;;;0.10;0.10;;;10.20;99.90;;;;;;4962840;28;20212;-80
2023/10/06 00:43:48;;;;;;;0.10;0.10;;;10.20;99.90;;;;;;4960816;28;20220;-81
2023/10/06 00:46:16;;;;;;;0.10;0.10;;;10.20;99.90;;;;;;4961837;28;20291;-81
2023/10/06 00:48:44;;;;;;;0.00;0.00;;;10.20;99.90;;;;;;4977659;28;20287;-81
2023/10/06 00:51:19;;;;;;;0.10;0.10;;;10.20;99.90;;;;;;4959686;28;20192;-80
2023/10/06 00:53:56;;;;;;;0.10;0.10;;;10.20;99.90;;;;;;4960974;28;21210;-81
2023/10/06 00:56:26;;;;;;;0.10;0.10;;;10.30;99.90;;;;;;4961816;28;20276;-81
2023/10/06 00:58:53;;;;;;;0.10;0.10;;;10.40;99.90;;;;;;4961967;28;20195;-80
2023/10/06 01:01:19;;;;;;;0.10;0.10;;;10.40;99.90;;;;;;4961579;28;20211;-81
2023/10/06 01:04:00;;;;;;;0.10;0.10;;;10.40;99.90;;;;;;4961590;28;20597;-81
2023/10/06 01:06:33;;;;;;;0.10;0.10;;;10.40;99.90;;;;;;4960933;28;20212;-81
2023/10/06 01:09:07;;;;;;;0.10;0.10;;;10.50;99.90;;;;;;4961010;28;20187;-81
2023/10/06 01:11:46;;;;;;;0.00;0.00;;;10.50;99.90;;;;;;4960281;28;20188;-81
2023/10/06 01:14:21;;;;;;;0.07;0.07;;;10.50;99.90;;;;;;4962262;28;20183;-81
2023/10/06 01:16:49;;;;;;;0.00;0.00;;;10.50;99.90;;;;;;4974639;28;20188;-81
2023/10/06 01:19:17;;;;;;;0.10;0.10;;;10.50;99.90;;;;;;4959313;28;20196;-80
2023/10/06 01:21:47;;;;;;;0.00;0.00;;;10.30;99.90;;;;;;4959451;28;20386;-80
2023/10/06 01:24:15;;;;;;;0.10;0.10;;;10.30;99.90;;;;;;4961304;28;20254;-81
2023/10/06 01:26:41;;;;;;;0.00;0.00;;;10.40;99.90;;;;;;4961557;28;20224;-81
2023/10/06 01:29:13;;;;;;;0.10;0.10;;;10.40;99.90;;;;;;4961045;28;20560;-81
2023/10/06 01:31:41;;;;;;;0.10;0.10;;;10.50;99.90;;;;;;4959919;28;20275;-81
2023/10/06 01:34:11;;;;;;;0.10;0.10;;;10.40;99.90;;;;;;4959189;28;20185;-81
2023/10/06 01:36:39;;;;;;;0.10;0.10;;;10.30;99.90;;;;;;4976181;28;20681;-80
2023/10/06 01:39:16;;;;;;;0.10;0.10;;;10.40;99.90;;;;;;4960432;28;20352;-80
2023/10/06 01:41:46;;;;;;;0.10;0.10;;;10.40;99.90;;;;;;4960753;28;20223;-81
2023/10/06 01:44:15;;;;;;;0.10;0.10;;;10.40;99.90;;;;;;4961530;28;20188;-81
2023/10/06 01:46:41;;;;;;;0.10;0.10;;;10.40;99.90;;;;;;4960863;28;20223;-80
2023/10/06 01:49:10;;;;;;;0.10;0.10;;;10.40;99.90;;;;;;4960443;28;20198;-81
2023/10/06 01:51:38;;;;;;;0.00;0.00;;;10.30;99.90;;;;;;4961431;28;20195;-81
2023/10/06 01:54:06;;;;;;;0.10;0.10;;;10.10;99.90;;;;;;4962472;28;20556;-81
2023/10/06 01:56:34;;;;;;;0.10;0.10;;;9.90;99.90;;;;;;4963089;28;20224;-81
2023/10/06 01:58:59;;;;;;;0.00;0.00;;;9.70;99.90;;;;;;4960371;28;21246;-80
2023/10/06 02:01:25;;;;;;;0.10;0.10;;;9.60;99.90;;;;;;4960881;28;20185;-81
2023/10/06 02:03:50;;;;;;;0.00;0.00;;;9.60;99.90;;;;;;4960340;28;20209;-81
2023/10/06 02:06:16;;;;;;;0.10;0.10;;;9.60;99.90;;;;;;4960023;28;20213;-81
2023/10/06 02:08:50;;;;;;;0.10;0.10;;;9.50;99.90;;;;;;4958911;28;20742;-80
2023/10/06 02:11:16;;;;;;;0.10;0.10;;;9.50;99.90;;;;;;4977021;28;20726;-81
2023/10/06 02:13:42;;;;;;;0.10;0.10;;;9.40;99.90;;;;;;4959594;28;20620;-81
2023/10/06 02:16:09;;;;;;;0.00;0.00;;;9.40;99.90;;;;;;4960172;28;20245;-80
2023/10/06 02:18:37;;;;;;;0.10;0.10;;;9.50;99.90;;;;;;4960329;28;20200;-80
2023/10/06 02:21:11;;;;;;;0.10;0.10;;;9.50;99.90;;;;;;4962446;28;20189;-80
2023/10/06 02:23:41;;;;;;;0.10;0.10;;;9.60;99.90;;;;;;4973578;28;20267;-80
2023/10/06 02:26:12;;;;;;;0.10;0.10;;;9.70;99.90;;;;;;4960220;28;20213;-80
2023/10/06 02:28:43;;;;;;;0.10;0.10;;;9.90;99.90;;;;;;4960832;28;20176;-80
2023/10/06 02:31:10;;;;;;;0.10;0.10;;;9.90;99.90;;;;;;4961264;28;20220;-80
2023/10/06 02:33:39;;;;;;;0.10;0.10;;;10.00;99.90;;;;;;4958832;28;20204;-80
2023/10/06 02:36:17;;;;;;;0.00;0.00;;;10.10;99.90;;;;;;4961202;28;20186;-80
2023/10/06 02:38:49;;;;;;;0.10;0.10;;;10.10;99.90;;;;;;4959205;28;20282;-80
2023/10/06 02:41:19;;;;;;;0.10;0.10;;;10.10;99.90;;;;;;4959858;28;20277;-80
2023/10/06 02:43:46;;;;;;;0.07;0.07;;;10.10;99.90;;;;;;4961019;28;20213;-80
2023/10/06 02:46:14;;;;;;;0.10;0.10;;;10.00;99.90;;;;;;4960957;28;20319;-80
2023/10/06 02:48:48;;;;;;;0.10;0.10;;;10.00;99.90;;;;;;4959711;28;20184;-80
2023/10/06 02:51:20;;;;;;;0.10;0.10;;;10.00;99.90;;;;;;4959055;28;20722;-80
2023/10/06 02:53:50;;;;;;;0.10;0.10;;;10.00;99.90;;;;;;4960873;28;20891;-80
2023/10/06 02:56:19;;;;;;;0.10;0.10;;;10.00;99.90;;;;;;4958286;28;20188;-80
2023/10/06 02:58:46;;;;;;;0.07;0.07;;;10.10;99.90;;;;;;4975163;28;20247;-80
2023/10/06 03:01:11;;;;;;;0.10;0.10;;;10.00;99.90;;;;;;4960452;28;20202;-80
2023/10/06 03:03:37;;;;;;;0.00;0.00;;;10.00;99.90;;;;;;4959036;28;20228;-81
2023/10/06 03:06:07;;;;;;;0.00;0.00;;;10.10;99.90;;;;;;4959764;28;20211;-80
2023/10/06 03:08:35;;;;;;;0.00;0.00;;;10.10;99.90;;;;;;4958807;28;20177;-80
2023/10/06 03:11:01;;;;;;;0.10;0.10;;;10.20;99.90;;;;;;4957754;28;20240;-80
2023/10/06 03:13:36;;;;;;;0.10;0.10;;;10.20;99.90;;;;;;4959736;28;20204;-80
2023/10/06 03:16:10;;;;;;;0.00;0.00;;;10.30;99.90;;;;;;4960762;28;20173;-80
2023/10/06 03:18:35;;;;;;;0.10;0.10;;;10.30;99.90;;;;;;4957791;28;20240;-80
2023/10/06 03:21:13;;;;;;;0.10;0.10;;;10.10;99.90;;;;;;4960964;28;20697;-80
2023/10/06 03:23:38;;;;;;;0.00;0.00;;;10.00;99.90;;;;;;4958939;28;20215;-80
2023/10/06 03:26:28;;;;;;;0.10;0.10;;;9.80;99.90;;;;;;4959388;28;20196;-81
2023/10/06 03:29:01;;;;;;;0.10;0.10;;;9.90;99.90;;;;;;4959971;28;20173;-80
2023/10/06 03:31:44;;;;;;;0.10;0.10;;;9.90;99.90;;;;;;4959963;28;20165;-80
2023/10/06 03:34:15;;;;;;;0.10;0.10;;;9.90;99.90;;;;;;4958280;28;20260;-80
2023/10/06 03:36:46;;;;;;;0.00;0.00;;;9.90;99.90;;;;;;4960659;28;20677;-80
2023/10/06 03:39:13;;;;;;;0.10;0.10;;;9.90;99.90;;;;;;4967323;28;20189;-80
2023/10/06 03:41:43;;;;;;;0.07;0.07;;;9.90;99.90;;;;;;4963493;28;20655;-80
2023/10/06 03:44:11;;;;;;;0.00;0.00;;;9.90;99.90;;;;;;4963888;28;20215;-80
2023/10/06 03:46:38;;;;;;;0.10;0.10;;;9.90;99.90;;;;;;4965409;28;20267;-80
2023/10/06 03:49:04;;;;;;;0.10;0.10;;;9.90;99.90;;;;;;4962078;28;20221;-80
2023/10/06 03:51:38;;;;;;;0.10;0.10;;;9.90;99.90;;;;;;4962972;28;20188;-80
2023/10/06 03:54:04;;;;;;;0.00;0.00;;;9.80;99.90;;;;;;4963449;28;20173;-80
2023/10/06 03:56:31;;;;;;;0.00;0.00;;;9.80;99.90;;;;;;4962610;28;20192;-80
2023/10/06 03:58:59;;;;;;;0.00;0.00;;;9.70;99.90;;;;;;4963294;28;20254;-80
2023/10/06 04:01:28;;;;;;;0.03;0.03;;;9.60;99.90;;;;;;4964454;28;20189;-80
2023/10/06 04:03:58;;;;;;;0.00;0.00;;;9.60;99.90;;;;;;4961845;28;20690;-80
2023/10/06 04:06:25;;;;;;;0.10;0.10;;;9.60;99.90;;;;;;4962606;28;20251;-79
2023/10/06 04:08:52;;;;;;;0.00;0.00;;;9.70;99.90;;;;;;4960926;28;20185;-80
2023/10/06 04:11:18;;;;;;;0.10;0.10;;;9.70;99.90;;;;;;4959032;28;20184;-79
2023/10/06 04:13:44;;;;;;;0.00;0.00;;;9.70;99.90;;;;;;4961920;28;20219;-79
2023/10/06 04:16:13;;;;;;;0.07;0.07;;;9.60;99.90;;;;;;4962479;28;20181;-79
2023/10/06 04:18:38;;;;;;;0.10;0.10;;;9.60;99.90;;;;;;4962519;28;20189;-79
2023/10/06 04:21:04;;;;;;;0.10;0.10;;;9.60;99.90;;;;;;4961402;28;20678;-79
2023/10/06 04:23:30;;;;;;;0.10;0.10;;;9.70;99.90;;;;;;4963743;28;20278;-79
2023/10/06 04:25:56;;;;;;;0.10;0.10;;;9.70;99.90;;;;;;4962075;28;20704;-79
2023/10/06 04:28:24;;;;;;;0.00;0.00;;;9.70;99.90;;;;;;4961765;28;20193;-79
2023/10/06 04:30:50;;;;;;;0.10;0.10;;;9.80;99.90;;;;;;4964516;28;20260;-79
2023/10/06 04:33:18;;;;;;;0.00;0.00;;;9.80;99.90;;;;;;4962182;28;20782;-79
2023/10/06 04:38:46;;;;;;;0.10;0.10;;;9.80;99.90;;;;;;4980167;28;20951;-79
2023/10/06 04:41:14;;;;;;;0.00;0.00;;;9.70;99.90;;;;;;4966042;28;20193;-80
2023/10/06 04:43:44;;;;;;;0.00;0.00;;;9.70;99.90;;;;;;4961560;28;20216;-80
2023/10/06 04:46:11;;;;;;;0.10;0.10;;;9.80;99.90;;;;;;4961892;28;20554;-80
2023/10/06 04:48:38;;;;;;;0.07;0.07;;;9.80;99.90;;;;;;4959763;28;20189;-79
2023/10/06 04:51:04;;;;;;;0.10;0.10;;;9.90;99.90;;;;;;4961453;28;20189;-79
2023/10/06 04:53:35;;;;;;;0.10;0.10;;;9.90;99.90;;;;;;4959960;28;20699;-79
2023/10/06 04:56:04;;;;;;;0.10;0.10;;;10.00;99.90;;;;;;4962370;28;20179;-79
2023/10/06 04:58:29;;;;;;;0.10;0.10;;;10.00;99.90;;;;;;4961117;28;20332;-79
2023/10/06 05:00:59;;;;;;;0.03;0.03;;;10.00;99.90;;;;;;4963096;28;20271;-80
2023/10/06 05:03:25;;;;;;;0.03;0.03;;;10.00;99.90;;;;;;4963402;28;20703;-80
2023/10/06 05:05:50;;;;;;;0.10;0.10;;;10.00;99.90;;;;;;4960633;28;20208;-80
2023/10/06 05:08:16;;;;;;;0.00;0.00;;;10.00;99.90;;;;;;4959683;28;20181;-80
2023/10/06 05:10:42;;;;;;;0.10;0.10;;;10.00;99.90;;;;;;4957340;28;20688;-78
2023/10/06 05:13:08;;;;;;;0.10;0.10;;;10.00;99.90;;;;;;4960739;28;20214;-79
2023/10/06 05:15:40;;;;;;;0.10;0.10;;;10.00;99.90;;;;;;4963868;28;20216;-78
2023/10/06 05:18:07;;;;;;;0.10;0.10;;;10.00;99.90;;;;;;4962934;28;20192;-80
2023/10/06 05:20:35;;;;;;;0.00;0.00;;;10.10;99.90;;;;;;4964438;28;20279;-80
2023/10/06 05:23:07;;;;;;;0.07;0.07;;;10.10;99.90;;;;;;4964463;28;20274;-80
2023/10/06 05:25:33;;;;;;;0.10;0.10;;;10.10;99.90;;;;;;4964700;28;20231;-81
2023/10/06 05:28:02;;;;;;;0.10;0.10;;;10.10;99.90;;;;;;4964206;28;20656;-80
2023/10/06 05:30:29;;;;;;;0.10;0.10;;;10.20;99.90;;;;;;4962682;28;20239;-80
2023/10/06 05:32:58;;;;;;;0.00;0.00;;;10.20;99.90;;;;;;4962280;28;20212;-80
2023/10/06 05:35:28;;;;;;;0.00;0.00;;;10.30;99.90;;;;;;4966026;28;20183;-80
2023/10/06 05:37:54;;;;;;;0.10;0.10;;;10.30;99.90;;;;;;4961918;28;20199;-81
2023/10/06 05:40:21;;;;;;;0.10;0.10;;;10.30;99.90;;;;;;4971315;28;20187;-80
2023/10/06 05:42:50;;;;;;;0.10;0.10;;;10.30;99.90;;;;;;4962951;28;20201;-80
2023/10/06 05:45:19;;;;;;;0.10;0.10;;;10.40;99.90;;;;;;4963482;28;20285;-80
2023/10/06 05:47:46;;;;;;;0.10;0.10;;;10.30;99.90;;;;;;4978250;28;20192;-81
2023/10/06 05:50:18;;;;;;;0.10;0.10;;;10.30;99.90;;;;;;4992743;28;20181;-80
2023/10/06 05:52:44;;;;;;;0.00;0.00;;;10.40;99.90;;;;;;4960660;28;20210;-80
2023/10/06 05:55:12;;;;;;;0.10;0.10;;;10.30;99.90;;;;;;4962974;28;20192;-80
2023/10/06 05:57:39;;;;;;;0.00;0.00;;;10.40;99.90;;;;;;4960221;28;20215;-80
2023/10/06 06:00:09;;;;;;;0.03;0.03;;;10.50;99.90;;;;;;4975988;28;20181;-80
2023/10/06 06:02:37;;;;;;;0.10;0.10;;;10.50;99.90;;;;;;4960738;28;20212;-80
2023/10/06 06:05:04;;;;;;;0.07;0.07;;;10.60;99.90;;;;;;4960295;28;20205;-80
2023/10/06 06:07:33;;;;;;;0.00;0.00;;;10.60;99.90;;;;;;4961025;28;20180;-80
2023/10/06 06:09:59;;;;;;;0.00;0.00;;;10.60;99.90;;;;;;4963736;28;20849;-80
2023/10/06 06:12:25;;;;;;;0.10;0.10;;;10.60;99.90;;;;;;4962356;28;20221;-80
2023/10/06 06:14:50;;;;;;;0.00;0.00;;;10.50;99.90;;;;;;4960223;28;20189;-80
2023/10/06 06:17:20;;;;;;;0.00;0.00;;;10.50;99.90;;;;;;4959589;28;20197;-79
2023/10/06 06:19:46;;;;;;;0.10;0.10;;;10.50;99.90;;;;;;4962818;28;20238;-80
2023/10/06 06:22:12;;;;;;;0.10;0.10;;;10.50;99.90;;;;;;4961431;28;20593;-79
2023/10/06 06:24:38;;;;;;;0.10;0.10;;;10.60;99.90;;;;;;4961339;28;20668;-79
2023/10/06 06:27:04;;;;;;;0.10;0.10;;;10.50;99.90;;;;;;4960865;28;20244;-79
2023/10/06 06:29:29;;;;;;;0.10;0.10;;;10.40;99.90;;;;;;4962005;28;20651;-79
2023/10/06 06:31:55;;;;;;;0.10;0.10;;;10.50;99.90;;;;;;4961463;28;20223;-80
2023/10/06 06:34:20;;;;;;;0.10;0.10;;;10.60;99.90;;;;;;4960557;28;20786;-80
2023/10/06 06:36:47;;;;;;;0.10;0.10;;;10.70;99.90;;;;;;4954139;28;20244;-79
2023/10/06 06:39:12;;;;;;;0.10;0.10;;;10.70;99.90;;;;;;4959004;28;20279;-79
2023/10/06 06:41:38;;;;;;;0.10;0.10;;;10.80;99.90;;;;;;4961812;28;20606;-79
2023/10/06 06:44:04;;;;;;;0.10;0.10;;;10.80;99.90;;;;;;4958385;28;20192;-80
2023/10/06 06:46:29;;;;;;;0.10;0.10;;;10.90;99.90;;;;;;4955802;28;20262;-79
2023/10/06 06:48:55;;;;;;;0.00;0.00;;;11.00;99.90;;;;;;4957499;28;20210;-80
2023/10/06 06:51:27;;;;;;;0.10;0.10;;;11.10;99.90;;;;;;4958395;28;20660;-80
2023/10/06 06:53:56;;;;;;;0.03;0.03;;;11.10;99.90;;;;;;4960913;28;20196;-79
2023/10/06 06:56:28;;;;;;;0.10;0.10;;;11.20;99.90;;;;;;4959801;28;20181;-80
2023/10/06 06:58:59;;;;;;;0.10;0.10;;;11.20;99.90;;;;;;4959043;28;20216;-80
2023/10/06 07:01:25;;;;;;;0.10;0.10;;;11.30;99.90;;;;;;4955954;28;20176;-80
2023/10/06 07:03:50;;;;;;;0.10;0.10;;;11.30;99.90;;;;;;4956021;28;20570;-79
2023/10/06 07:06:16;;;;;;;0.10;0.10;;;11.30;99.90;;;;;;4957443;28;20225;-79
2023/10/06 07:08:46;;;;;;;0.10;0.10;;;11.20;99.90;;;;;;4957950;28;20608;-79
2023/10/06 07:11:13;;;;;;;0.10;0.10;;;11.40;99.90;;;;;;4957513;28;20195;-79
2023/10/06 07:13:42;;;;;;;0.10;0.10;;;11.60;99.90;;;;;;4957041;28;20353;-80
2023/10/06 07:16:09;;;;;;;0.10;0.10;;;11.60;99.90;;;;;;4957269;28;20256;-80
2023/10/06 07:18:36;;;;;;;0.10;0.10;;;11.80;99.90;;;;;;4955368;28;20197;-80
2023/10/06 07:21:10;;;;;;;0.07;0.07;;;11.90;99.90;;;;;;4956841;28;20193;-80
2023/10/06 07:23:39;;;;;;;0.10;0.10;;;11.90;99.90;;;;;;4976180;28;20245;-80
2023/10/06 07:26:09;;;;;;;0.10;0.10;;;12.00;99.90;;;;;;4958440;28;20261;-81
2023/10/06 07:28:37;;;;;;;0.10;0.10;;;12.20;99.90;;;;;;4959391;28;20192;-79
2023/10/06 07:31:12;;;;;;;0.00;0.00;;;12.30;99.90;;;;;;4960082;28;20173;-80
2023/10/06 07:33:38;;;;;;;0.10;0.10;;;12.30;99.90;;;;;;4975490;28;20303;-80
2023/10/06 07:36:14;;;;;;;0.60;0.60;;;12.40;99.90;;;;;;4959808;28;20275;-80
2023/10/06 07:38:43;;;;;;;0.10;0.10;;;12.50;99.90;;;;;;4957587;28;20577;-80
2023/10/06 07:41:09;;;;;;;0.00;0.00;;;12.70;99.90;;;;;;4973732;28;20676;-80
2023/10/06 07:43:35;;;;;;;0.10;0.10;;;12.90;99.90;;;;;;4957625;28;20207;-79
2023/10/06 07:46:07;;;;;;;0.10;0.10;;;13.10;99.90;;;;;;4958654;28;20208;-79
2023/10/06 07:48:36;;;;;;;0.10;0.10;;;13.30;99.90;;;;;;4955785;28;20672;-80
2023/10/06 07:51:09;;;;;;;0.10;0.10;;;13.50;99.90;;;;;;4961804;28;20214;-80
2023/10/06 07:53:36;;;;;;;0.10;0.10;;;13.70;99.90;;;;;;4958603;28;20210;-80
2023/10/06 07:56:06;;;;;;;0.00;0.00;;;13.70;99.90;;;;;;4955964;28;20942;-80
2023/10/06 07:58:32;;;;;;;0.10;0.10;;;13.70;99.90;;;;;;4954733;28;20200;-80
2023/10/06 08:01:02;;;;;;;0.10;0.10;;;13.60;99.90;;;;;;4959257;28;20190;-79
2023/10/06 08:03:27;;;;;;;0.10;0.10;;;13.70;99.90;;;;;;4960268;28;20292;-80
2023/10/06 08:05:55;;;;;;;0.10;0.10;;;13.80;99.90;;;;;;4960009;28;20345;-80
2023/10/06 08:08:21;;;;;;;0.00;0.00;;;13.90;99.90;;;;;;4961479;28;20182;-80
2023/10/06 08:10:49;;;;;;;0.10;0.10;;;14.10;99.90;;;;;;4960311;28;20550;-80
2023/10/06 08:13:15;;;;;;;0.10;0.10;;;14.20;99.90;;;;;;4958049;28;20222;-80
2023/10/06 08:15:44;;;;;;;0.10;0.10;;;14.50;99.90;;;;;;4959294;28;20269;-80
2023/10/06 08:18:12;;;;;;;0.10;0.10;;;14.40;99.90;;;;;;4960611;28;20181;-80
2023/10/06 08:20:40;;;;;;;0.10;0.10;;;14.40;99.90;;;;;;4962939;28;20606;-80
2023/10/06 08:23:07;;;;;;;0.10;0.10;;;14.30;99.90;;;;;;4966818;28;20469;-80
2023/10/06 08:25:33;;;;;;;0.10;0.10;;;14.20;99.90;;;;;;4966487;28;20211;-80
2023/10/06 08:27:59;;;;;;;0.10;0.10;;;14.40;99.90;;;;;;4966748;28;20217;-80
2023/10/06 08:30:26;;;;;;;0.07;0.07;;;14.60;99.90;;;;;;4965811;28;20214;-80
2023/10/06 08:32:53;;;;;;;0.10;0.10;;;14.80;99.90;;;;;;4962458;28;20230;-80
2023/10/06 08:35:20;;;;;;;0.00;0.00;;;14.90;99.90;;;;;;4964069;28;20196;-80
2023/10/06 08:37:47;;;;;;;0.00;0.00;;;15.00;99.90;;;;;;4962269;28;20192;-80
2023/10/06 08:40:19;;;;;;;0.10;0.10;;;15.00;99.90;;;;;;4963532;28;20192;-80
2023/10/06 08:42:51;;;;;;;0.10;0.10;;;15.20;99.90;;;;;;4962719;28;20218;-80
2023/10/06 08:45:25;;;;;;;0.10;0.10;;;15.20;99.90;;;;;;4962010;28;20222;-80
2023/10/06 08:47:59;;;;;;;0.10;0.10;;;15.20;99.90;;;;;;4960496;28;20742;-80
2023/10/06 08:50:27;;;;;;;0.10;0.10;;;15.20;99.90;;;;;;4962922;28;20183;-80
2023/10/06 08:52:54;;;;;;;0.10;0.10;;;15.20;99.90;;;;;;4962613;28;20206;-80
2023/10/06 08:55:21;;;;;;;0.10;0.10;;;15.30;99.90;;;;;;4978045;28;20238;-80
2023/10/06 08:57:49;;;;;;;0.10;0.10;;;15.50;99.90;;;;;;4963424;28;20215;-80
2023/10/06 09:00:16;;;;;;;0.10;0.10;;;15.60;99.90;;;;;;4960835;28;20193;-80
2023/10/06 09:02:44;;;;;;;0.00;0.00;;;15.70;99.90;;;;;;4961360;28;20223;-80
2023/10/06 09:05:10;;;;;;;0.10;0.10;;;15.80;99.90;;;;;;4961856;28;20530;-81
2023/10/06 09:07:35;;;;;;;0.10;0.10;;;16.00;99.90;;;;;;4960222;28;20182;-80
2023/10/06 09:10:19;;;;;;;0.10;0.10;;;16.00;99.90;;;;;;4960019;28;20206;-80
2023/10/06 09:13:01;;;;;;;0.10;0.10;;;16.00;99.90;;;;;;4962040;28;20316;-81
2023/10/06 09:15:30;;;;;;;0.10;0.10;;;15.80;99.90;;;;;;4961209;28;20699;-81
2023/10/06 09:17:59;;;;;;;0.10;0.10;;;15.90;99.90;;;;;;4961422;28;20563;-81
2023/10/06 09:20:32;;;;;;;0.10;0.10;;;15.90;99.90;;;;;;4958051;28;20188;-80
2023/10/06 09:22:59;;;;;;;0.10;0.10;;;15.90;99.90;;;;;;4962527;28;20205;-80
2023/10/06 09:25:25;;;;;;;0.10;0.10;;;15.90;99.90;;;;;;4961383;28;20249;-81
2023/10/06 09:28:08;;;;;;;0.10;0.10;;;16.00;99.90;;;;;;4960761;28;20264;-80
2023/10/06 09:30:50;;;;;;;0.10;0.10;;;16.10;99.90;;;;;;4957737;28;20190;-80
2023/10/06 09:33:17;;;;;;;0.10;0.10;;;16.20;99.90;;;;;;4992304;28;20214;-81
2023/10/06 09:35:43;;;;;;;0.10;0.10;;;16.10;99.90;;;;;;4959504;28;20733;-81
2023/10/06 09:38:13;;;;;;;0.10;0.10;;;16.00;99.90;;;;;;4965475;28;20269;-81
2023/10/06 09:40:46;;;;;;;0.10;0.10;;;15.90;99.90;;;;;;4970928;28;20186;-81
2023/10/06 09:43:17;;;;;;;0.10;0.10;;;16.00;99.90;;;;;;4971204;28;20216;-81
2023/10/06 09:45:43;;;;;;;0.10;0.10;;;16.20;99.90;;;;;;4972354;28;20256;-81
2023/10/06 09:48:15;;;;;;;0.00;0.00;;;16.40;99.90;;;;;;4973058;28;20275;-80
2023/10/06 09:50:43;;;;;;;0.10;0.10;;;16.60;99.90;;;;;;4970517;28;20203;-81
2023/10/06 09:53:12;;;;;;;0.10;0.10;;;16.70;99.90;;;;;;4962513;28;20212;-81
2023/10/06 09:55:40;;;;;;;0.10;0.10;;;16.80;99.90;;;;;;4979597;28;20260;-81
2023/10/06 09:58:07;;;;;;;0.10;0.10;;;16.90;99.90;;;;;;4963958;28;20276;-80
2023/10/06 10:00:38;;;;;;;0.10;0.10;;;17.20;99.90;;;;;;4962773;28;20193;-79
2023/10/06 10:03:05;;;;;;;0.10;0.10;;;17.60;99.90;;;;;;4963582;28;20219;-80
2023/10/06 10:05:31;;;;;;;0.10;0.10;;;17.90;99.90;;;;;;4962540;28;20203;-80
2023/10/06 10:07:58;;;;;;;0.10;0.10;;;18.00;99.90;;;;;;4962806;28;20185;-80
2023/10/06 10:10:25;;;;;;;0.00;0.00;;;17.90;99.90;;;;;;4962493;28;20792;-81
2023/10/06 10:13:13;;;;;;;0.10;0.10;;;18.20;99.90;;;;;;4961153;28;20743;-80
2023/10/06 10:16:19;;;;;;;0.10;0.10;;;18.40;99.90;;;;;;4961397;28;20252;-80
2023/10/06 10:18:59;;;;;;;0.10;0.10;;;18.50;99.90;;;;;;4963767;28;20191;-80
2023/10/06 10:21:26;;;;;;;0.10;0.10;;;18.60;99.90;;;;;;4962151;28;20197;-81
2023/10/06 10:23:56;;;;;;;0.10;0.10;;;18.80;99.90;;;;;;4962397;28;20207;-80
2023/10/06 10:26:28;;;;;;;0.10;0.10;;;18.80;99.90;;;;;;4961300;28;20236;-81
2023/10/06 10:29:12;;;;;;;0.10;0.10;;;18.80;99.90;;;;;;4975251;28;20172;-81
2023/10/06 10:31:38;;;;;;;0.10;0.10;;;18.80;99.90;;;;;;4961587;28;20648;-80
2023/10/06 10:34:03;;;;;;;0.10;0.10;;;18.90;99.90;;;;;;4958023;28;21098;-80
2023/10/06 10:36:29;;;;;;;0.10;0.10;;;18.90;99.90;;;;;;4959511;28;20189;-80
2023/10/06 10:39:02;;;;;;;0.10;0.10;;;19.00;99.90;;;;;;4957612;28;20275;-80
2023/10/06 10:41:34;;;;;;;0.10;0.10;;;18.60;99.90;;;;;;4958624;28;20192;-80
2023/10/06 10:44:11;;;;;;;0.10;0.10;;;18.90;99.90;;;;;;4961149;28;20680;-80
2023/10/06 10:46:52;;;;;;;0.10;0.10;;;18.90;99.90;;;;;;4957407;28;20212;-80
2023/10/06 10:49:20;;;;;;;0.10;0.10;;;18.90;99.90;;;;;;4958095;28;20191;-80
2023/10/06 10:51:55;;;;;;;0.10;0.10;;;19.20;99.90;;;;;;4959672;28;20664;-80
2023/10/06 10:54:27;;;;;;;0.10;0.10;;;19.20;99.90;;;;;;4974342;28;20235;-80
2023/10/06 10:57:01;;;;;;;0.10;0.10;;;19.50;99.90;;;;;;4959279;28;20199;-80
2023/10/06 11:02:42;;;;;;;0.10;0.10;;;19.80;99.90;;;;;;4958441;28;20225;-80
2023/10/06 11:05:09;;;;;;;0.10;0.10;;;19.80;99.90;;;;;;4957371;28;20216;-80
2023/10/06 11:07:35;;;;;;;0.10;0.10;;;19.90;99.90;;;;;;4960394;28;20318;-81
2023/10/06 11:10:02;;;;;;;0.10;0.10;;;19.70;99.90;;;;;;4959631;28;20282;-81
2023/10/06 11:12:30;;;;;;;0.10;0.10;;;19.70;99.90;;;;;;4959944;28;20201;-81
2023/10/06 11:15:03;;;;;;;0.10;0.10;;;19.70;99.90;;;;;;4960449;28;20209;-81
2023/10/06 11:17:32;;;;;;;0.10;0.10;;;19.80;99.90;;;;;;4959911;28;20638;-81
2023/10/06 11:20:25;;;;;;;0.10;0.10;;;19.60;99.90;;;;;;4957632;28;20215;-81
2023/10/06 11:22:55;;;;;;;0.10;0.10;;;19.60;99.90;;;;;;4972687;28;20696;-80
2023/10/06 11:25:27;;;;;;;0.10;0.10;;;19.70;99.90;;;;;;4959856;28;20659;-80
2023/10/06 11:27:56;;;;;;;0.10;0.10;;;19.80;99.90;;;;;;4959628;28;20656;-81
2023/10/06 11:30:23;;;;;;;0.10;0.10;;;19.90;99.90;;;;;;4962395;28;20177;-81
2023/10/06 11:32:50;;;;;;;0.10;0.10;;;20.00;99.90;;;;;;4957848;28;20209;-81
2023/10/06 11:35:17;;;;;;;0.10;0.10;;;20.00;99.90;;;;;;4959942;28;20602;-80
2023/10/06 11:37:43;;;;;;;0.10;0.10;;;20.20;99.90;;;;;;4958309;28;20184;-80
2023/10/06 11:40:09;;;;;;;0.10;0.10;;;20.10;99.90;;;;;;4972386;28;20292;-81
2023/10/06 11:42:41;;;;;;;0.10;0.10;;;20.10;99.90;;;;;;4959878;28;20704;-81
2023/10/06 11:45:24;;;;;;;0.10;0.10;;;20.20;99.90;;;;;;4961298;28;20182;-80
2023/10/06 11:47:51;;;;;;;0.10;0.10;;;20.20;99.90;;;;;;4960895;28;20179;-81
2023/10/06 11:50:25;;;;;;;0.10;0.10;;;20.40;99.90;;;;;;4960786;28;20183;-80
2023/10/06 11:52:50;;;;;;;0.10;0.10;;;20.60;99.90;;;;;;4960506;28;21134;-81
2023/10/06 11:55:24;;;;;;;0.10;0.10;;;20.80;99.90;;;;;;4960077;28;20255;-80
2023/10/06 11:57:54;;;;;;;0.10;0.10;;;21.00;99.90;;;;;;4978758;28;20189;-81
2023/10/06 12:00:45;;;;;;;0.10;0.10;;;21.00;99.90;;;;;;4963559;28;20280;-80
2023/10/06 12:03:11;;;;;;;0.10;0.10;;;20.80;99.90;;;;;;4966587;28;20267;-81
2023/10/06 12:05:52;;;;;;;0.10;0.10;;;20.40;99.90;;;;;;4962577;28;20204;-81
2023/10/06 12:08:18;;;;;;;0.10;0.10;;;20.30;99.90;;;;;;4962220;28;20539;-80
2023/10/06 12:10:51;;;;;;;0.10;0.10;;;20.30;99.90;;;;;;4961459;28;20184;-81
2023/10/06 12:13:17;;;;;;;0.10;0.10;;;20.40;99.90;;;;;;4962917;28;20234;-81
2023/10/06 12:15:44;;;;;;;0.10;0.10;;;20.20;99.90;;;;;;4977030;28;20684;-81
2023/10/06 12:18:10;;;;;;;0.10;0.10;;;20.30;99.90;;;;;;4967619;28;20208;-81
2023/10/06 12:20:36;;;;;;;0.10;0.10;;;20.60;99.90;;;;;;4983386;28;22344;-81
2023/10/06 12:23:02;;;;;;;0.10;0.10;;;20.70;99.90;;;;;;4966396;28;20208;-80
2023/10/06 12:25:27;;;;;;;0.10;0.10;;;20.80;99.90;;;;;;4964952;28;20681;-81
2023/10/06 12:27:53;;;;;;;0.10;0.10;;;20.90;99.90;;;;;;4961792;28;20184;-84
2023/10/06 12:30:19;;;;;;;0.10;0.10;;;21.00;99.90;;;;;;4962742;28;20188;-81
2023/10/06 12:32:45;;;;;;;0.10;0.10;;;21.10;99.90;;;;;;4963284;28;20208;-80
2023/10/06 12:35:12;;;;;;;0.10;0.10;;;21.00;99.90;;;;;;4976452;28;20867;-81
2023/10/06 12:37:41;;;;;;;0.10;0.10;;;21.00;99.90;;;;;;4962097;28;20217;-81
2023/10/06 12:40:09;;;;;;;0.10;0.10;;;20.90;99.90;;;;;;4962056;28;20211;-81
2023/10/06 12:42:36;;;;;;;0.10;0.10;;;20.90;99.90;;;;;;4962673;28;20366;-81
2023/10/06 12:45:02;;;;;;;0.10;0.10;;;21.10;99.90;;;;;;4961226;28;20837;-81
2023/10/06 12:47:28;;;;;;;0.10;0.10;;;21.00;99.90;;;;;;4962048;28;20507;-81
2023/10/06 12:49:58;;;;;;;0.10;0.10;;;20.70;99.90;;;;;;4958608;28;20195;-83
2023/10/06 12:52:23;;;;;;;0.10;0.10;;;20.50;99.90;;;;;;4963584;28;21314;-81
2023/10/06 12:54:49;;;;;;;0.10;0.10;;;20.70;99.90;;;;;;4963128;28;20263;-81
2023/10/06 12:57:14;;;;;;;0.10;0.10;;;20.80;99.90;;;;;;4964342;28;20181;-81
2023/10/06 12:59:41;;;;;;;0.10;0.10;;;20.70;99.90;;;;;;4966469;28;20203;-81
2023/10/06 13:02:06;;;;;;;0.10;0.10;;;20.70;99.90;;;;;;4964265;28;20212;-81
2023/10/06 13:04:32;;;;;;;0.10;0.10;;;20.80;99.90;;;;;;4965238;28;21084;-81